createdAt,value
2023-04-15T00:01:07.933Z,6.70
2023-04-15T00:03:35.717Z,6.70
2023-04-15T00:06:03.724Z,6.70
2023-04-15T00:08:31.010Z,6.70
2023-04-15T00:11:02.889Z,6.70
2023-04-15T00:13:30.198Z,6.70
2023-04-15T00:15:57.494Z,6.70
2023-04-15T00:18:24.989Z,6.70
2023-04-15T00:20:52.748Z,6.70
2023-04-15T00:23:19.687Z,6.70
2023-04-15T00:25:47.041Z,6.70
2023-04-15T00:28:14.229Z,6.70
2023-04-15T00:30:41.734Z,6.70
2023-04-15T00:33:09.889Z,6.70
2023-04-15T00:35:38.716Z,6.70
2023-04-15T00:38:06.777Z,6.80
2023-04-15T00:40:34.370Z,6.70
2023-04-15T00:43:01.568Z,6.70
2023-04-15T00:45:28.806Z,6.70
2023-04-15T00:47:56.087Z,6.70
2023-04-15T00:50:23.126Z,6.70
2023-04-15T00:52:50.042Z,6.70
2023-04-15T00:55:16.952Z,6.70
2023-04-15T00:57:44.469Z,6.70
2023-04-15T01:00:12.164Z,6.70
2023-04-15T01:02:39.650Z,6.70
2023-04-15T01:05:07.883Z,6.70
2023-04-15T01:07:34.984Z,6.60
2023-04-15T01:10:03.380Z,6.60
2023-04-15T01:12:32.507Z,6.60
2023-04-15T01:15:00.268Z,6.60
2023-04-15T01:17:27.425Z,6.60
2023-04-15T01:19:56.133Z,6.60
2023-04-15T01:22:23.863Z,6.60
2023-04-15T01:25:09.952Z,6.60
2023-04-15T01:27:39.987Z,6.60
2023-04-15T01:30:07.998Z,6.60
2023-04-15T01:32:35.026Z,6.60
2023-04-15T01:35:02.256Z,6.50
2023-04-15T01:37:29.737Z,6.50
2023-04-15T01:39:58.159Z,6.60
2023-04-15T01:42:25.688Z,6.50
2023-04-15T01:44:53.776Z,6.50
2023-04-15T01:47:20.841Z,6.50
2023-04-15T01:49:48.088Z,6.50
2023-04-15T01:52:15.817Z,6.50
2023-04-15T01:54:42.762Z,6.50
2023-04-15T01:57:09.940Z,6.50
2023-04-15T01:59:37.344Z,6.50
2023-04-15T02:02:05.568Z,6.50
2023-04-15T02:04:32.725Z,6.50
2023-04-15T02:07:00.874Z,6.50
2023-04-15T02:09:28.063Z,6.50
2023-04-15T02:11:54.947Z,6.50
2023-04-15T02:14:22.233Z,6.50
2023-04-15T02:16:49.295Z,6.50
2023-04-15T02:19:16.552Z,6.50
2023-04-15T02:21:43.524Z,6.50
2023-04-15T02:24:12.213Z,6.50
2023-04-15T02:26:41.641Z,6.50
2023-04-15T02:29:08.644Z,6.60
2023-04-15T02:31:40.439Z,6.60
2023-04-15T02:34:08.230Z,6.50
2023-04-15T02:36:35.358Z,6.60
2023-04-15T02:39:03.019Z,6.60
2023-04-15T02:41:30.503Z,6.60
2023-04-15T02:43:58.102Z,6.60
2023-04-15T02:46:25.202Z,6.50
2023-04-15T02:48:53.820Z,6.60
2023-04-15T02:51:22.933Z,6.50
2023-04-15T02:53:50.713Z,6.50
2023-04-15T02:56:19.455Z,6.50
2023-04-15T02:58:46.826Z,6.50
2023-04-15T03:01:13.903Z,6.50
2023-04-15T03:03:42.059Z,6.50
2023-04-15T03:06:09.158Z,6.50
2023-04-15T03:08:37.117Z,6.50
2023-04-15T03:11:04.716Z,6.50
2023-04-15T03:13:33.116Z,6.40
2023-04-15T03:16:05.841Z,6.50
2023-04-15T03:18:33.199Z,6.40
2023-04-15T03:21:03.012Z,6.40
2023-04-15T03:23:33.303Z,6.40
2023-04-15T03:26:03.870Z,6.40
2023-04-15T03:28:32.884Z,6.40
2023-04-15T03:31:00.716Z,6.40
2023-04-15T03:33:27.977Z,6.40
2023-04-15T03:35:54.999Z,6.40
2023-04-15T03:38:29.720Z,6.40
2023-04-15T03:40:58.348Z,6.40
2023-04-15T03:43:25.457Z,6.40
2023-04-15T03:45:52.335Z,6.40
2023-04-15T03:48:19.311Z,6.40
2023-04-15T03:50:46.375Z,6.40
2023-04-15T03:53:13.246Z,6.40
2023-04-15T03:55:40.292Z,6.40
2023-04-15T03:58:07.319Z,6.40
2023-04-15T04:00:34.288Z,6.30
2023-04-15T04:03:01.372Z,6.40
2023-04-15T04:05:28.329Z,6.30
2023-04-15T04:07:55.371Z,6.30
2023-04-15T04:10:22.344Z,6.30
2023-04-15T04:12:49.311Z,6.30
2023-04-15T04:15:16.224Z,6.30
2023-04-15T04:17:43.176Z,6.30
2023-04-15T04:20:10.507Z,6.30
2023-04-15T04:22:41.323Z,6.30
2023-04-15T04:25:08.787Z,6.30
2023-04-15T04:27:36.104Z,6.30
2023-04-15T04:30:03.151Z,6.30
2023-04-15T04:32:30.342Z,6.30
2023-04-15T04:34:57.237Z,6.30
2023-04-15T04:37:24.739Z,6.30
2023-04-15T04:39:51.719Z,6.30
2023-04-15T04:42:18.675Z,6.30
2023-04-15T04:44:45.685Z,6.30
2023-04-15T04:47:32.503Z,6.30
2023-04-15T04:50:14.670Z,6.30
2023-04-15T04:52:47.167Z,6.30
2023-04-15T04:55:18.381Z,6.30
2023-04-15T04:57:49.008Z,6.30
2023-04-15T05:00:19.540Z,6.30
2023-04-15T05:02:46.575Z,6.30
2023-04-15T05:05:13.622Z,6.30
2023-04-15T05:07:40.680Z,6.20
2023-04-15T05:10:08.132Z,6.20
2023-04-15T05:12:35.722Z,6.20
2023-04-15T05:15:02.596Z,6.20
2023-04-15T05:17:32.016Z,6.20
2023-04-15T05:19:58.924Z,6.20
2023-04-15T05:22:25.979Z,6.20
2023-04-15T05:24:52.876Z,6.20
2023-04-15T05:27:19.784Z,6.10
2023-04-15T05:29:46.859Z,6.10
2023-04-15T05:32:13.838Z,6.10
2023-04-15T05:34:41.079Z,6.10
2023-04-15T05:37:07.950Z,6.10
2023-04-15T05:39:34.832Z,6.20
2023-04-15T05:42:02.309Z,6.20
2023-04-15T05:44:29.144Z,6.20
2023-04-15T05:46:56.294Z,6.20
2023-04-15T05:49:23.247Z,6.30
2023-04-15T05:51:50.275Z,6.30
2023-04-15T05:54:18.692Z,6.40
2023-04-15T05:56:47.035Z,6.30
2023-04-15T05:59:13.904Z,6.40
2023-04-15T06:01:40.827Z,6.40
2023-04-15T06:04:07.841Z,6.40
2023-04-15T06:06:34.950Z,6.40
2023-04-15T06:09:02.115Z,6.40
2023-04-15T06:11:29.357Z,6.40
2023-04-15T06:13:56.659Z,6.40
2023-04-15T06:16:23.520Z,6.40
2023-04-15T06:18:50.444Z,6.40
2023-04-15T06:21:17.276Z,6.40
2023-04-15T06:23:44.172Z,6.40
2023-04-15T06:26:11.058Z,6.40
2023-04-15T06:28:37.892Z,6.50
2023-04-15T06:31:04.901Z,6.50
2023-04-15T06:33:31.986Z,6.50
2023-04-15T06:36:01.555Z,6.50
2023-04-15T06:38:28.403Z,6.50
2023-04-15T06:40:55.516Z,6.60
2023-04-15T06:43:22.461Z,6.60
2023-04-15T06:45:49.428Z,6.60
2023-04-15T06:48:16.479Z,6.60
2023-04-15T06:50:43.407Z,6.70
2023-04-15T06:53:10.268Z,6.70
2023-04-15T06:55:37.235Z,6.70
2023-04-15T06:58:04.140Z,6.70
2023-04-15T07:00:31.003Z,6.70
2023-04-15T07:02:57.988Z,6.80
2023-04-15T07:05:25.574Z,6.80
2023-04-15T07:07:53.045Z,6.90
2023-04-15T07:10:20.519Z,6.90
2023-04-15T07:12:48.229Z,6.90
2023-04-15T07:15:15.166Z,6.90
2023-04-15T07:17:43.368Z,7.00
2023-04-15T07:20:10.677Z,7.00
2023-04-15T07:22:37.692Z,7.00
2023-04-15T07:25:06.721Z,7.00
2023-04-15T07:27:33.804Z,7.10
2023-04-15T07:30:01.006Z,7.10
2023-04-15T07:32:27.909Z,7.20
2023-04-15T07:34:54.974Z,7.20
2023-04-15T07:37:21.873Z,7.30
2023-04-15T07:39:49.157Z,7.30
2023-04-15T07:42:16.443Z,7.30
2023-04-15T07:44:45.718Z,7.30
2023-04-15T07:47:12.645Z,7.40
2023-04-15T07:49:49.541Z,7.40
2023-04-15T07:52:19.452Z,7.40
2023-04-15T07:54:46.377Z,7.50
2023-04-15T07:57:13.267Z,7.50
2023-04-15T07:59:40.226Z,7.50
2023-04-15T08:02:07.179Z,7.60
2023-04-15T08:04:34.431Z,7.60
2023-04-15T08:07:01.672Z,7.70
2023-04-15T08:09:28.580Z,7.80
2023-04-15T08:11:56.652Z,7.80
2023-04-15T08:14:24.496Z,7.90
2023-04-15T08:16:51.549Z,7.90
2023-04-15T08:19:18.436Z,8.00
2023-04-15T08:21:45.682Z,8.10
2023-04-15T08:24:13.098Z,8.10
2023-04-15T08:26:40.005Z,8.20
2023-04-15T08:29:06.903Z,8.20
2023-04-15T08:31:34.149Z,8.20
2023-04-15T08:34:01.222Z,8.30
2023-04-15T08:36:28.558Z,8.30
2023-04-15T08:38:55.500Z,8.30
2023-04-15T08:41:26.248Z,8.30
2023-04-15T08:43:54.856Z,8.40
2023-04-15T08:46:22.811Z,8.40
2023-04-15T08:48:50.280Z,8.40
2023-04-15T08:51:17.797Z,8.50
2023-04-15T08:53:45.570Z,8.60
2023-04-15T08:56:12.672Z,8.70
2023-04-15T08:58:39.674Z,8.70
2023-04-15T09:01:06.648Z,8.80
2023-04-15T09:03:34.447Z,8.80
2023-04-15T09:06:01.719Z,8.90
2023-04-15T09:08:28.592Z,9.00
2023-04-15T09:10:55.895Z,9.10
2023-04-15T09:13:23.158Z,9.10
2023-04-15T09:15:50.308Z,9.30
2023-04-15T09:18:33.816Z,9.40
2023-04-15T09:21:19.303Z,9.50
2023-04-15T09:23:59.855Z,9.60
2023-04-15T09:26:34.310Z,9.80
2023-04-15T09:29:08.343Z,9.90
2023-04-15T09:31:36.906Z,10.00
2023-04-15T09:34:04.132Z,10.20
2023-04-15T09:36:38.547Z,10.40
2023-04-15T09:39:05.710Z,10.80
2023-04-15T09:41:33.702Z,11.20
2023-04-15T09:44:00.916Z,11.70
2023-04-15T09:46:41.265Z,12.20
2023-04-15T09:49:08.957Z,12.50
2023-04-15T09:51:36.014Z,12.50
2023-04-15T09:54:03.685Z,12.60
2023-04-15T09:56:41.607Z,12.60
2023-04-15T09:59:09.222Z,12.70
2023-04-15T10:01:36.855Z,12.70
2023-04-15T10:04:04.982Z,12.70
2023-04-15T10:06:32.456Z,12.70
2023-04-15T10:09:00.820Z,12.60
2023-04-15T10:11:31.922Z,12.50
2023-04-15T10:13:59.095Z,12.40
2023-04-15T10:16:27.905Z,12.20
2023-04-15T10:18:55.661Z,12.10
2023-04-15T10:21:23.733Z,11.90
2023-04-15T10:23:50.699Z,11.70
2023-04-15T10:26:18.080Z,11.70
2023-04-15T10:28:45.290Z,11.70
2023-04-15T10:31:13.105Z,11.60
2023-04-15T10:33:40.309Z,11.70
2023-04-15T10:36:07.916Z,11.70
2023-04-15T10:38:38.923Z,11.70
2023-04-15T10:41:24.726Z,11.90
2023-04-15T10:43:55.936Z,12.20
2023-04-15T10:46:24.729Z,12.70
2023-04-15T10:48:52.759Z,13.20
2023-04-15T10:51:30.512Z,13.90
2023-04-15T10:53:59.473Z,14.70
2023-04-15T10:56:28.210Z,15.30
2023-04-15T10:58:56.110Z,15.80
2023-04-15T11:01:23.414Z,16.30
2023-04-15T11:03:51.918Z,16.80
2023-04-15T11:06:19.057Z,17.00
2023-04-15T11:08:56.770Z,17.30
2023-04-15T11:11:23.732Z,17.50
2023-04-15T11:13:51.159Z,17.90
2023-04-15T11:16:19.494Z,18.20
2023-04-15T11:18:56.194Z,18.50
2023-04-15T11:21:24.917Z,18.90
2023-04-15T11:23:51.845Z,19.20
2023-04-15T11:26:18.997Z,19.30
2023-04-15T11:28:46.228Z,19.60
2023-04-15T11:31:18.103Z,19.80
2023-04-15T11:33:54.545Z,20.00
2023-04-15T11:36:21.634Z,20.20
2023-04-15T11:38:48.548Z,20.20
2023-04-15T11:41:15.512Z,20.10
2023-04-15T11:43:42.637Z,19.80
2023-04-15T11:46:09.692Z,19.70
2023-04-15T11:48:36.764Z,19.70
2023-04-15T11:51:04.708Z,19.90
2023-04-15T11:53:38.255Z,20.20
2023-04-15T11:56:05.600Z,20.40
2023-04-15T11:58:34.541Z,20.40
2023-04-15T12:01:01.791Z,20.30
2023-04-15T12:03:28.947Z,20.00
2023-04-15T12:06:12.936Z,19.70
2023-04-15T12:08:52.864Z,19.30
2023-04-15T12:11:20.449Z,18.90
2023-04-15T12:13:50.465Z,18.60
2023-04-15T12:16:18.446Z,18.20
2023-04-15T12:18:50.741Z,17.90
2023-04-15T12:21:19.701Z,17.60
2023-04-15T12:23:50.863Z,17.20
2023-04-15T12:26:18.517Z,17.00
2023-04-15T12:28:45.607Z,16.70
2023-04-15T12:31:14.460Z,16.50
2023-04-15T12:33:41.537Z,16.20
2023-04-15T12:36:08.453Z,16.00
2023-04-15T12:38:35.570Z,15.80
2023-04-15T12:41:02.546Z,15.70
2023-04-15T12:43:29.490Z,15.50
2023-04-15T12:45:56.583Z,15.30
2023-04-15T12:48:23.505Z,15.20
2023-04-15T12:50:50.416Z,15.10
2023-04-15T12:53:20.489Z,15.00
2023-04-15T12:55:50.297Z,14.90
2023-04-15T12:58:17.511Z,14.80
2023-04-15T13:00:44.797Z,14.80
2023-04-15T13:03:11.907Z,14.70
2023-04-15T13:05:40.856Z,14.70
2023-04-15T13:08:08.426Z,14.70
2023-04-15T13:10:36.609Z,14.70
2023-04-15T13:13:03.812Z,14.60
2023-04-15T13:15:30.894Z,14.60
2023-04-15T13:17:57.854Z,14.60
2023-04-15T13:20:26.946Z,14.60
2023-04-15T13:22:54.111Z,14.60
2023-04-15T13:25:21.108Z,14.60
2023-04-15T13:27:48.229Z,14.60
2023-04-15T13:30:15.161Z,14.50
2023-04-15T13:32:42.059Z,14.40
2023-04-15T13:35:09.351Z,14.40
2023-04-15T13:37:36.575Z,14.30
2023-04-15T13:40:03.732Z,14.30
2023-04-15T13:42:30.938Z,14.20
2023-04-15T13:44:57.963Z,14.10
2023-04-15T13:47:25.091Z,14.00
2023-04-15T13:49:53.044Z,13.90
2023-04-15T13:52:19.947Z,13.80
2023-04-15T13:54:47.798Z,13.70
2023-04-15T13:57:34.674Z,13.70
2023-04-15T14:00:02.307Z,13.70
2023-04-15T14:02:33.670Z,13.70
2023-04-15T14:05:00.877Z,13.70
2023-04-15T14:07:29.209Z,13.70
2023-04-15T14:09:56.193Z,13.70
2023-04-15T14:12:23.063Z,13.60
2023-04-15T14:14:50.009Z,13.60
2023-04-15T14:17:16.953Z,13.60
2023-04-15T14:19:43.815Z,13.60
2023-04-15T14:22:10.957Z,13.50
2023-04-15T14:24:37.864Z,13.50
2023-04-15T14:27:04.798Z,13.60
2023-04-15T14:29:32.307Z,13.60
2023-04-15T14:32:11.502Z,13.50
2023-04-15T14:34:41.343Z,13.50
2023-04-15T14:37:11.289Z,13.50
2023-04-15T14:39:38.245Z,13.50
2023-04-15T14:42:07.318Z,13.40
2023-04-15T14:44:34.212Z,13.40
2023-04-15T14:47:01.191Z,13.40
2023-04-15T14:49:28.241Z,13.40
2023-04-15T14:51:55.230Z,13.40
2023-04-15T14:54:22.596Z,13.40
2023-04-15T14:56:49.665Z,13.40
2023-04-15T14:59:16.765Z,13.40
2023-04-15T15:01:43.819Z,13.40
2023-04-15T15:04:11.172Z,13.40
2023-04-15T15:06:38.551Z,13.40
2023-04-15T15:09:05.623Z,13.40
2023-04-15T15:11:32.559Z,13.40
2023-04-15T15:14:01.950Z,13.40
2023-04-15T15:16:29.514Z,13.40
2023-04-15T15:18:58.002Z,13.40
2023-04-15T15:21:24.982Z,13.40
2023-04-15T15:23:51.918Z,13.30
2023-04-15T15:26:19.455Z,13.30
2023-04-15T15:28:46.367Z,13.30
2023-04-15T15:31:13.512Z,13.40
2023-04-15T15:33:40.556Z,13.30
2023-04-15T15:36:07.563Z,13.30
2023-04-15T15:38:34.462Z,13.30
2023-04-15T15:41:01.410Z,13.20
2023-04-15T15:43:28.298Z,13.20
2023-04-15T15:45:55.633Z,13.10
2023-04-15T15:48:25.822Z,13.10
2023-04-15T15:50:53.107Z,13.10
2023-04-15T15:53:21.065Z,13.10
2023-04-15T15:55:48.413Z,13.10
2023-04-15T15:58:15.577Z,13.00
2023-04-15T16:00:43.017Z,13.00
2023-04-15T16:03:10.173Z,13.00
2023-04-15T16:05:38.305Z,13.00
2023-04-15T16:08:05.462Z,12.90
2023-04-15T16:10:32.436Z,12.80
2023-04-15T16:12:59.446Z,12.80
2023-04-15T16:15:26.539Z,12.80
2023-04-15T16:17:53.528Z,12.70
2023-04-15T16:20:20.490Z,12.70
2023-04-15T16:22:47.628Z,12.70
2023-04-15T16:25:14.571Z,12.70
2023-04-15T16:27:54.576Z,12.80
2023-04-15T16:30:24.645Z,12.70
2023-04-15T16:32:51.659Z,12.70
2023-04-15T16:35:18.682Z,12.60
2023-04-15T16:37:45.701Z,12.60
2023-04-15T16:40:12.728Z,12.60
2023-04-15T16:42:41.184Z,12.50
2023-04-15T16:45:08.616Z,12.50
2023-04-15T16:47:35.713Z,12.40
2023-04-15T16:50:02.667Z,12.40
2023-04-15T16:52:30.300Z,12.40
2023-04-15T16:55:00.490Z,12.40
2023-04-15T16:58:00.709Z,12.40
2023-04-15T17:00:14.718Z,12.40
2023-04-15T17:02:41.737Z,12.40
2023-04-15T17:05:08.904Z,12.40
2023-04-15T17:07:35.950Z,12.40
2023-04-15T17:10:03.190Z,12.40
2023-04-15T17:12:30.472Z,12.40
2023-04-15T17:14:57.395Z,12.40
2023-04-15T17:17:24.503Z,12.30
2023-04-15T17:19:51.545Z,12.30
2023-04-15T17:22:18.575Z,12.30
2023-04-15T17:24:45.623Z,12.30
2023-04-15T17:27:12.520Z,12.30
2023-04-15T17:29:39.426Z,12.20
2023-04-15T17:32:06.283Z,12.20
2023-04-15T17:34:49.446Z,12.20
2023-04-15T17:37:18.521Z,12.10
2023-04-15T17:39:45.843Z,12.10
2023-04-15T17:42:13.078Z,12.00
2023-04-15T17:44:39.978Z,12.00
2023-04-15T17:47:06.919Z,12.00
2023-04-15T17:49:34.397Z,12.00
2023-04-15T17:52:01.417Z,11.90
2023-04-15T17:54:28.374Z,11.90
2023-04-15T17:56:56.787Z,11.90
2023-04-15T17:59:23.924Z,11.90
2023-04-15T18:01:50.971Z,11.90
2023-04-15T18:04:18.026Z,11.80
2023-04-15T18:06:45.021Z,11.80
2023-04-15T18:09:11.997Z,11.80
2023-04-15T18:11:43.954Z,11.80
2023-04-15T18:14:12.467Z,11.70
2023-04-15T18:16:40.591Z,11.70
2023-04-15T18:19:07.941Z,11.70
2023-04-15T18:21:34.931Z,11.70
2023-04-15T18:24:02.701Z,11.70
2023-04-15T18:26:29.973Z,11.60
2023-04-15T18:28:56.989Z,11.60
2023-04-15T18:31:24.005Z,11.60
2023-04-15T18:33:51.175Z,11.60
2023-04-15T18:36:18.216Z,11.60
2023-04-15T18:38:45.560Z,11.50
2023-04-15T18:41:12.469Z,11.50
2023-04-15T18:43:39.449Z,11.40
2023-04-15T18:46:10.235Z,11.40
2023-04-15T18:48:37.337Z,11.40
2023-04-15T18:51:17.249Z,11.40
2023-04-15T18:53:44.164Z,11.40
2023-04-15T18:56:11.041Z,11.30
2023-04-15T18:59:27.900Z,11.30
2023-04-15T19:01:25.039Z,11.30
2023-04-15T19:03:52.099Z,11.30
2023-04-15T19:06:19.123Z,11.30
2023-04-15T19:08:46.445Z,11.30
2023-04-15T19:11:13.419Z,11.20
2023-04-15T19:13:40.720Z,11.20
2023-04-15T19:16:07.684Z,11.20
2023-04-15T19:18:34.760Z,11.20
2023-04-15T19:21:01.694Z,11.10
2023-04-15T19:23:34.988Z,11.10
2023-04-15T19:26:02.564Z,11.10
2023-04-15T19:28:29.844Z,11.10
2023-04-15T19:30:58.578Z,11.00
2023-04-15T19:33:31.150Z,11.00
2023-04-15T19:36:02.162Z,11.00
2023-04-15T19:38:30.607Z,11.00
2023-04-15T19:40:57.943Z,10.90
2023-04-15T19:43:26.059Z,10.90
2023-04-15T19:45:54.647Z,10.90
2023-04-15T19:48:23.016Z,10.90
2023-04-15T19:50:50.132Z,10.80
2023-04-15T19:53:17.448Z,10.80
2023-04-15T19:55:44.642Z,10.80
2023-04-15T19:58:11.930Z,10.70
2023-04-15T20:00:38.968Z,10.70
2023-04-15T20:03:06.271Z,10.70
2023-04-15T20:05:33.474Z,10.60
2023-04-15T20:08:01.310Z,10.60
2023-04-15T20:10:28.436Z,10.60
2023-04-15T20:12:55.467Z,10.60
2023-04-15T20:15:23.973Z,10.60
2023-04-15T20:17:51.410Z,10.60
2023-04-15T20:20:18.822Z,10.60
2023-04-15T20:22:46.232Z,10.50
2023-04-15T20:25:13.198Z,10.50
2023-04-15T20:27:40.723Z,10.50
2023-04-15T20:30:07.934Z,10.50
2023-04-15T20:32:38.737Z,10.40
2023-04-15T20:35:06.878Z,10.40
2023-04-15T20:37:34.055Z,10.40
2023-04-15T20:40:01.996Z,10.30
2023-04-15T20:42:32.541Z,10.30
2023-04-15T20:44:59.544Z,10.30
2023-04-15T20:47:26.505Z,10.30
2023-04-15T20:49:53.930Z,10.20
2023-04-15T20:52:20.802Z,10.20
2023-04-15T20:54:47.769Z,10.20
2023-04-15T20:57:14.653Z,10.10
2023-04-15T20:59:41.563Z,10.10
2023-04-15T21:02:08.702Z,10.10
2023-04-15T21:04:36.030Z,10.10
2023-04-15T21:07:02.923Z,10.10
2023-04-15T21:09:29.898Z,10.10
2023-04-15T21:12:01.620Z,10.00
2023-04-15T21:14:29.328Z,10.00
2023-04-15T21:16:58.794Z,10.00
2023-04-15T21:19:25.821Z,10.00
2023-04-15T21:21:52.802Z,10.00
2023-04-15T21:24:19.639Z,10.00
2023-04-15T21:26:47.153Z,10.00
2023-04-15T21:29:14.268Z,10.00
2023-04-15T21:31:41.522Z,10.00
2023-04-15T21:34:08.535Z,10.00
2023-04-15T21:36:35.440Z,10.00
2023-04-15T21:39:02.457Z,10.00
2023-04-15T21:41:29.774Z,10.00
2023-04-15T21:43:56.795Z,10.00
2023-04-15T21:46:25.717Z,10.00
2023-04-15T21:49:00.413Z,10.00
2023-04-15T21:51:27.806Z,10.00
2023-04-15T21:53:54.883Z,10.00
2023-04-15T21:56:24.232Z,10.00
2023-04-15T21:58:55.284Z,10.00
2023-04-15T22:01:22.440Z,10.00
2023-04-15T22:03:49.438Z,10.00
2023-04-15T22:06:16.416Z,10.00
2023-04-15T22:08:55.399Z,10.00
2023-04-15T22:11:27.171Z,10.00
2023-04-15T22:13:54.792Z,10.00
2023-04-15T22:16:21.998Z,10.10
2023-04-15T22:18:49.153Z,10.10
2023-04-15T22:21:16.423Z,10.10
2023-04-15T22:23:47.597Z,10.10
2023-04-15T22:26:14.893Z,10.10
2023-04-15T22:28:42.682Z,10.10
2023-04-15T22:31:10.075Z,10.10
2023-04-15T22:33:37.132Z,10.00
2023-04-15T22:36:04.199Z,10.00
2023-04-15T22:38:31.437Z,10.00
2023-04-15T22:40:58.497Z,10.00
2023-04-15T22:43:26.184Z,10.00
2023-04-15T22:45:55.014Z,9.90
2023-04-15T22:48:22.417Z,9.90
2023-04-15T22:50:49.618Z,9.80
2023-04-15T22:53:17.474Z,9.80
2023-04-15T22:55:47.818Z,9.80
2023-04-15T22:58:15.395Z,9.80
2023-04-15T23:00:42.481Z,9.80
2023-04-15T23:03:09.713Z,9.80
2023-04-15T23:05:37.175Z,9.80
2023-04-15T23:08:04.109Z,9.80
2023-04-15T23:10:31.356Z,9.80
2023-04-15T23:12:58.365Z,9.70
2023-04-15T23:15:25.504Z,9.80
2023-04-15T23:17:52.584Z,9.70
2023-04-15T23:20:19.632Z,9.80
2023-04-15T23:22:46.790Z,9.70
2023-04-15T23:25:13.846Z,9.70
2023-04-15T23:27:41.359Z,9.70
2023-04-15T23:30:08.657Z,9.60
2023-04-15T23:32:36.117Z,9.70
2023-04-15T23:35:03.331Z,9.60
2023-04-15T23:37:31.424Z,9.60
2023-04-15T23:39:58.404Z,9.60
2023-04-15T23:42:26.089Z,9.60
2023-04-15T23:44:53.137Z,9.60
2023-04-15T23:47:20.060Z,9.60
2023-04-15T23:49:47.043Z,9.60
2023-04-15T23:52:14.021Z,9.60
2023-04-15T23:54:40.986Z,9.50
2023-04-15T23:57:07.896Z,9.60
2023-04-15T23:59:34.849Z,9.50
